Time;durP1;ratioP1;P1;durP2;ratioP2;P2;SDS_P1;SDS_P2;PMS_P1;PMS_P2;Temp;Humidity;BMP_temperature;BMP_pressure;BME280_temperature;BME280_humidity;BME280_pressure;Samples;Min_cycle;Max_cycle;Signal;HPM_P1;HPM_P2
2023/04/06 00:00:14;;;;;;;17.45;8.43;;;;;;;-3.03;100.00;95704.50;5038998;28;20054;-77
2023/04/06 00:02:59;;;;;;;19.10;8.55;;;;;;;-3.10;100.00;95703.63;5039664;28;20084;-77
2023/04/06 00:05:26;;;;;;;16.23;7.35;;;;;;;-3.05;100.00;95700.50;5045656;28;20553;-77
2023/04/06 00:07:54;;;;;;;21.58;7.40;;;;;;;-3.06;100.00;95699.72;5047600;28;20045;-77
2023/04/06 00:10:19;;;;;;;18.73;8.25;;;;;;;-3.08;100.00;95701.66;5033485;28;20099;-78
2023/04/06 00:12:45;;;;;;;18.25;7.50;;;;;;;-3.09;100.00;95700.03;5046897;28;20036;-78
2023/04/06 00:15:10;;;;;;;16.63;7.55;;;;;;;-3.09;100.00;95689.75;5040114;28;20037;-76
2023/04/06 00:17:36;;;;;;;19.70;8.18;;;;;;;-3.18;100.00;95695.97;5045279;28;20445;-77
2023/04/06 00:20:02;;;;;;;18.67;7.57;;;;;;;-3.17;100.00;95697.56;5035225;28;20099;-78
2023/04/06 00:22:27;;;;;;;18.63;7.10;;;;;;;-3.23;100.00;95687.97;5048180;28;20033;-77
2023/04/06 00:24:53;;;;;;;17.10;7.78;;;;;;;-3.24;100.00;95686.41;5037180;28;20037;-77
2023/04/06 00:27:18;;;;;;;15.13;7.03;;;;;;;-3.24;100.00;95688.97;5036372;28;20080;-77
2023/04/06 00:29:44;;;;;;;19.60;7.65;;;;;;;-3.28;100.00;95690.31;5035481;28;20045;-77
2023/04/06 00:32:10;;;;;;;16.95;7.43;;;;;;;-3.28;100.00;95692.88;5046025;28;20216;-77
2023/04/06 00:34:35;;;;;;;16.13;7.82;;;;;;;-3.34;100.00;95692.59;5042903;28;20045;-77
2023/04/06 00:37:01;;;;;;;17.60;7.22;;;;;;;-3.45;100.00;95690.47;5042358;28;20457;-77
2023/04/06 00:39:27;;;;;;;15.88;6.53;;;;;;;-3.55;100.00;95689.91;5048268;28;20095;-76
2023/04/06 00:41:53;;;;;;;17.05;7.68;;;;;;;-3.47;100.00;95697.56;5040838;28;20124;-77
2023/04/06 00:44:20;;;;;;;18.10;7.65;;;;;;;-3.44;100.00;95692.06;5045975;28;20067;-77
2023/04/06 00:46:45;;;;;;;17.77;7.72;;;;;;;-3.15;100.00;95691.28;5034622;28;20056;-77
2023/04/06 00:49:11;;;;;;;16.05;7.43;;;;;;;-3.11;100.00;95691.72;5041858;28;20046;-77
2023/04/06 00:51:37;;;;;;;17.98;8.10;;;;;;;-3.05;100.00;95690.97;5035110;28;20038;-77
2023/04/06 00:54:02;;;;;;;15.52;7.00;;;;;;;-3.02;100.00;95684.69;5040704;28;20049;-77
2023/04/06 00:56:28;;;;;;;22.90;7.25;;;;;;;-2.97;100.00;95693.47;5040029;28;20548;-77
2023/04/06 00:58:53;;;;;;;20.70;7.70;;;;;;;-2.95;100.00;95690.72;5035470;28;20034;-77
2023/04/06 01:01:19;;;;;;;17.83;7.07;;;;;;;-3.04;100.00;95687.44;5046075;28;20046;-77
2023/04/06 01:03:48;;;;;;;13.98;6.50;;;;;;;-2.96;100.00;95687.34;5034004;28;20107;-76
2023/04/06 01:06:14;;;;;;;14.77;7.35;;;;;;;-3.08;100.00;95693.91;5039000;28;20497;-77
2023/04/06 01:08:40;;;;;;;16.02;7.38;;;;;;;-3.26;100.00;95685.75;5052530;28;20048;-77
2023/04/06 01:11:05;;;;;;;18.55;7.63;;;;;;;-3.06;100.00;95681.69;5070009;28;20031;-76
2023/04/06 01:13:31;;;;;;;22.90;7.72;;;;;;;-3.17;100.00;95682.13;5061457;28;20039;-75
2023/04/06 01:15:57;;;;;;;13.60;7.07;;;;;;;-2.96;100.00;95689.94;5058603;28;20037;-77
2023/04/06 01:18:29;;;;;;;16.52;7.15;;;;;;;-2.98;100.00;95697.00;5064467;28;20029;-76
2023/04/06 01:20:55;;;;;;;16.27;7.10;;;;;;;-3.11;100.00;95686.56;5063374;28;20041;-76
2023/04/06 01:23:21;;;;;;;17.17;6.97;;;;;;;-3.17;100.00;95692.44;5059665;28;20109;-76
2023/04/06 01:25:47;;;;;;;16.88;6.28;;;;;;;-3.07;100.00;95682.66;5058962;28;20058;-76
2023/04/06 01:28:12;;;;;;;16.85;7.32;;;;;;;-3.21;100.00;95680.88;5070776;28;20081;-76
2023/04/06 01:30:38;;;;;;;17.30;7.35;;;;;;;-3.20;100.00;95674.78;5073389;28;20055;-75
2023/04/06 01:33:03;;;;;;;13.57;6.85;;;;;;;-3.20;100.00;95682.50;5059184;28;20116;-75
2023/04/06 01:35:30;;;;;;;16.88;6.80;;;;;;;-3.07;100.00;95674.13;5061096;28;20089;-76
2023/04/06 01:37:55;;;;;;;18.25;7.05;;;;;;;-3.16;100.00;95678.56;5034076;28;20042;-77
2023/04/06 01:40:21;;;;;;;13.95;6.60;;;;;;;-3.11;100.00;95665.97;5046105;28;20703;-77
2023/04/06 01:42:46;;;;;;;16.67;7.45;;;;;;;-3.10;100.00;95675.28;5046309;28;20048;-77
2023/04/06 01:45:12;;;;;;;17.35;6.95;;;;;;;-3.27;100.00;95673.88;5044635;28;20124;-76
2023/04/06 01:47:38;;;;;;;17.60;6.82;;;;;;;-3.19;100.00;95666.06;5037558;28;20041;-76
2023/04/06 01:50:06;;;;;;;13.02;6.18;;;;;;;-3.00;100.00;95673.22;5032082;28;20052;-77
2023/04/06 01:52:32;;;;;;;23.08;7.15;;;;;;;-3.24;100.00;95670.97;5037977;28;20111;-77
2023/04/06 01:54:58;;;;;;;15.75;6.20;;;;;;;-3.37;100.00;95672.38;5037552;28;20052;-77
2023/04/06 01:57:25;;;;;;;13.15;6.38;;;;;;;-3.19;100.00;95664.28;5038162;28;20041;-77
2023/04/06 01:59:51;;;;;;;13.27;6.72;;;;;;;-3.28;100.00;95670.50;5031792;28;20049;-77
2023/04/06 02:02:17;;;;;;;15.05;6.70;;;;;;;-3.35;100.00;95664.47;5035610;28;20041;-77
2023/04/06 02:04:43;;;;;;;16.95;7.07;;;;;;;-3.35;100.00;95665.28;5037189;28;20095;-76
2023/04/06 02:07:08;;;;;;;13.32;6.75;;;;;;;-3.38;100.00;95664.81;5035349;28;20045;-77
2023/04/06 02:09:34;;;;;;;13.20;6.63;;;;;;;-3.28;100.00;95667.13;5032382;28;20079;-77
2023/04/06 02:12:01;;;;;;;15.40;6.70;;;;;;;-3.27;100.00;95661.03;5034431;28;20041;-77
2023/04/06 02:14:27;;;;;;;16.63;6.90;;;;;;;-3.40;100.00;95662.44;5048344;28;20036;-77
2023/04/06 02:16:52;;;;;;;12.88;6.57;;;;;;;-3.32;100.00;95659.78;5053253;28;20163;-77
2023/04/06 02:19:18;;;;;;;11.85;6.25;;;;;;;-3.44;100.00;95650.91;5040167;28;20067;-77
2023/04/06 02:21:44;;;;;;;14.50;6.25;;;;;;;-3.37;100.00;95656.94;5044051;28;20045;-77
2023/04/06 02:24:10;;;;;;;14.13;6.57;;;;;;;-3.43;100.00;95661.97;5036678;28;20321;-78
2023/04/06 02:26:35;;;;;;;16.08;7.00;;;;;;;-3.43;100.00;95657.66;5040933;28;20049;-77
2023/04/06 02:29:02;;;;;;;19.23;7.15;;;;;;;-3.61;100.00;95660.56;5036950;28;20416;-78
2023/04/06 02:31:27;;;;;;;15.05;6.28;;;;;;;-3.69;100.00;95658.09;5034871;28;20079;-78
2023/04/06 02:33:53;;;;;;;13.50;6.65;;;;;;;-3.80;100.00;95656.72;5031491;28;20034;-77
2023/04/06 02:36:18;;;;;;;13.48;6.25;;;;;;;-3.74;100.00;95653.44;5049696;28;20045;-77
2023/04/06 02:38:44;;;;;;;13.00;6.40;;;;;;;-3.81;100.00;95660.25;5045106;28;20044;-77
2023/04/06 02:41:09;;;;;;;14.82;6.85;;;;;;;-3.88;100.00;95659.38;5037651;28;20049;-77
2023/04/06 02:43:35;;;;;;;15.77;6.35;;;;;;;-3.78;100.00;95659.91;5035773;28;20045;-76
2023/04/06 02:46:01;;;;;;;17.25;7.18;;;;;;;-3.78;100.00;95662.47;5038873;28;20045;-77
2023/04/06 02:48:26;;;;;;;12.30;5.95;;;;;;;-3.71;100.00;95655.66;5042523;28;20084;-77
2023/04/06 02:50:52;;;;;;;17.40;6.50;;;;;;;-3.92;100.00;95647.84;5045803;28;20041;-77
2023/04/06 02:53:17;;;;;;;18.05;6.57;;;;;;;-3.97;100.00;95645.00;5048826;28;20041;-77
2023/04/06 02:55:43;;;;;;;16.80;6.72;;;;;;;-4.10;100.00;95651.53;5034695;28;20038;-78
2023/04/06 02:58:08;;;;;;;18.83;6.65;;;;;;;-4.16;100.00;95646.31;5036457;28;20128;-78
2023/04/06 03:00:34;;;;;;;13.43;6.63;;;;;;;-4.16;100.00;95649.66;5040336;28;20684;-78
2023/04/06 03:03:00;;;;;;;19.67;6.75;;;;;;;-4.21;100.00;95654.50;5036536;28;20075;-78
2023/04/06 03:05:26;;;;;;;14.70;7.00;;;;;;;-4.17;100.00;95653.19;5046353;28;20488;-78
2023/04/06 03:07:51;;;;;;;15.48;7.03;;;;;;;-4.32;100.00;95647.19;5035873;28;20041;-77
2023/04/06 03:10:17;;;;;;;15.45;7.00;;;;;;;-4.38;100.00;95654.66;5046425;28;20106;-78
2023/04/06 03:12:42;;;;;;;14.45;6.85;;;;;;;-4.41;100.00;95649.03;5049007;28;20063;-77
2023/04/06 03:15:08;;;;;;;11.05;6.07;;;;;;;-4.47;100.00;95660.78;5032964;28;20057;-77
2023/04/06 03:17:34;;;;;;;16.10;7.90;;;;;;;-4.46;100.00;95657.25;5040273;28;20044;-77
2023/04/06 03:20:00;;;;;;;16.13;6.88;;;;;;;-4.48;100.00;95654.09;5033887;28;20049;-77
2023/04/06 03:22:26;;;;;;;15.63;7.70;;;;;;;-4.67;100.00;95659.66;5042673;28;20041;-77
2023/04/06 03:24:51;;;;;;;13.57;7.30;;;;;;;-4.78;100.00;95650.59;5049473;28;20052;-76
2023/04/06 03:27:17;;;;;;;15.68;7.22;;;;;;;-4.75;100.00;95653.59;5036969;28;20069;-76
2023/04/06 03:29:42;;;;;;;16.40;6.90;;;;;;;-4.77;100.00;95660.69;5030814;28;20037;-77
2023/04/06 03:32:09;;;;;;;16.10;7.10;;;;;;;-4.78;100.00;95653.94;5034404;28;20053;-77
2023/04/06 03:34:34;;;;;;;12.65;6.20;;;;;;;-4.82;100.00;95652.69;5036056;28;20041;-77
2023/04/06 03:37:00;;;;;;;19.13;7.32;;;;;;;-4.85;100.00;95658.16;5042522;28;20048;-77
2023/04/06 03:39:26;;;;;;;15.13;6.85;;;;;;;-4.81;100.00;95656.84;5050495;28;20087;-76
2023/04/06 03:41:52;;;;;;;17.13;7.18;;;;;;;-4.89;100.00;95656.88;5032747;28;20482;-76
2023/04/06 03:44:17;;;;;;;14.95;7.10;;;;;;;-4.91;100.00;95663.97;5043209;28;20053;-77
2023/04/06 03:46:43;;;;;;;16.30;7.05;;;;;;;-4.91;100.00;95658.84;5039507;28;20135;-77
2023/04/06 03:49:08;;;;;;;16.92;7.25;;;;;;;-4.95;100.00;95658.38;5039895;28;20092;-77
2023/04/06 03:51:34;;;;;;;17.30;8.32;;;;;;;-4.96;100.00;95666.22;5041302;28;20037;-77
2023/04/06 03:53:59;;;;;;;18.38;8.95;;;;;;;-5.01;100.00;95668.50;5048598;28;20068;-77
2023/04/06 03:56:25;;;;;;;18.38;7.53;;;;;;;-5.00;100.00;95662.41;5040062;28;20667;-77
2023/04/06 03:58:51;;;;;;;20.55;8.25;;;;;;;-4.97;100.00;95674.91;5050187;28;20048;-77
2023/04/06 04:01:18;;;;;;;22.05;7.70;;;;;;;-5.09;100.00;95667.56;5047225;28;20211;-77
2023/04/06 04:03:43;;;;;;;14.38;6.95;;;;;;;-5.12;100.00;95673.03;5038087;28;20496;-77
2023/04/06 04:06:09;;;;;;;19.85;7.20;;;;;;;-4.99;100.00;95676.84;5045374;28;20175;-77
2023/04/06 04:08:35;;;;;;;19.70;7.28;;;;;;;-4.97;100.00;95669.75;5053716;28;20048;-76
2023/04/06 04:11:01;;;;;;;19.25;7.00;;;;;;;-5.05;100.00;95673.97;5035969;28;20067;-76
2023/04/06 04:13:26;;;;;;;15.45;6.85;;;;;;;-5.09;100.00;95677.81;5039925;28;20033;-77
2023/04/06 04:15:52;;;;;;;14.80;7.07;;;;;;;-5.10;100.00;95680.56;5045395;28;20033;-75
2023/04/06 04:18:18;;;;;;;13.07;7.38;;;;;;;-5.08;100.00;95689.69;5032931;28;20041;-75
2023/04/06 04:20:44;;;;;;;15.45;7.53;;;;;;;-5.09;100.00;95688.09;5040388;28;20331;-77
2023/04/06 04:23:10;;;;;;;15.45;7.13;;;;;;;-5.14;100.00;95685.25;5037675;28;20048;-77
2023/04/06 04:25:36;;;;;;;14.45;7.25;;;;;;;-5.16;100.00;95686.38;5036546;28;20047;-76
2023/04/06 04:28:02;;;;;;;18.75;8.13;;;;;;;-5.18;100.00;95691.66;5040987;28;20493;-76
2023/04/06 04:30:27;;;;;;;19.00;7.32;;;;;;;-5.19;100.00;95684.94;5034932;28;20040;-77
2023/04/06 04:32:53;;;;;;;20.38;7.53;;;;;;;-5.15;100.00;95688.78;5038578;28;20044;-77
2023/04/06 04:35:18;;;;;;;14.55;7.18;;;;;;;-5.26;100.00;95686.56;5038199;28;20145;-77
2023/04/06 04:37:44;;;;;;;19.80;8.40;;;;;;;-5.19;100.00;95691.84;5037243;28;20041;-77
2023/04/06 04:40:10;;;;;;;14.82;7.68;;;;;;;-5.22;100.00;95695.53;5038589;28;20052;-76
2023/04/06 04:42:35;;;;;;;16.23;7.38;;;;;;;-5.30;100.00;95690.41;5034799;28;20041;-76
2023/04/06 04:45:01;;;;;;;22.90;7.80;;;;;;;-5.29;100.00;95681.75;5044055;28;20136;-76
2023/04/06 04:47:27;;;;;;;21.67;9.40;;;;;;;-5.24;100.00;95684.66;5036494;28;20048;-76
2023/04/06 04:49:52;;;;;;;23.08;9.90;;;;;;;-5.26;100.00;95684.00;5034327;28;20114;-75
2023/04/06 04:52:18;;;;;;;27.60;11.05;;;;;;;-5.25;100.00;95688.97;5045279;28;20048;-76
2023/04/06 04:54:43;;;;;;;41.72;13.52;;;;;;;-5.23;100.00;95686.22;5048900;28;20120;-76
2023/04/06 04:57:09;;;;;;;40.60;14.13;;;;;;;-5.22;100.00;95695.53;5037721;28;20061;-77
2023/04/06 04:59:35;;;;;;;30.55;11.25;;;;;;;-5.28;100.00;95693.63;5033674;28;20120;-77
2023/04/06 05:02:00;;;;;;;22.60;9.18;;;;;;;-5.28;100.00;95693.63;5034437;28;20041;-77
2023/04/06 05:04:26;;;;;;;29.83;9.32;;;;;;;-5.23;100.00;95686.22;5040490;28;20037;-76
2023/04/06 05:07:03;;;;;;;20.55;9.25;;;;;;;-5.17;100.00;95693.28;5035549;28;20049;-77
2023/04/06 05:09:32;;;;;;;22.35;8.48;;;;;;;-5.17;100.00;95690.72;5048585;28;20037;-76
2023/04/06 05:11:58;;;;;;;18.80;8.77;;;;;;;-5.12;100.00;95696.13;5037700;28;20045;-76
2023/04/06 05:14:25;;;;;;;22.17;7.82;;;;;;;-5.18;100.00;95694.25;5039196;28;20107;-77
2023/04/06 05:16:50;;;;;;;16.35;7.82;;;;;;;-5.18;100.00;95688.31;5033285;28;20034;-76
2023/04/06 05:19:16;;;;;;;21.90;9.57;;;;;;;-5.12;100.00;95687.66;5033744;28;20541;-77
2023/04/06 05:21:41;;;;;;;21.08;9.00;;;;;;;-4.94;100.00;95690.78;5038344;28;20611;-77
2023/04/06 05:24:08;;;;;;;24.13;9.80;;;;;;;-4.85;100.00;95688.97;5044950;28;20041;-82
2023/04/06 05:26:34;;;;;;;22.83;9.38;;;;;;;-4.68;100.00;95694.00;5032184;28;20084;-79
2023/04/06 05:29:00;;;;;;;19.48;8.52;;;;;;;-4.54;100.00;95695.84;5033408;28;20045;-78
2023/04/06 05:31:25;;;;;;;19.27;8.98;;;;;;;-4.40;100.00;95696.88;5045046;28;20041;-79
2023/04/06 05:33:51;;;;;;;18.25;9.23;;;;;;;-4.29;100.00;95698.28;5046659;28;20570;-78
2023/04/06 05:36:16;;;;;;;23.10;9.68;;;;;;;-4.26;100.00;95687.66;5040872;28;20041;-79
2023/04/06 05:38:42;;;;;;;21.45;9.52;;;;;;;-4.04;100.00;95697.13;5039557;28;20465;-80
2023/04/06 05:41:07;;;;;;;24.95;9.38;;;;;;;-3.88;100.00;95700.50;5045000;28;20044;-75
2023/04/06 05:43:33;;;;;;;20.20;8.90;;;;;;;-3.74;100.00;95694.59;5045373;28;20037;-81
2023/04/06 05:45:59;;;;;;;29.52;8.85;;;;;;;-3.62;100.00;95699.31;5048553;28;20052;-77
2023/04/06 05:48:24;;;;;;;21.23;9.00;;;;;;;-3.58;100.00;95700.56;5035307;28;20045;-77
2023/04/06 05:50:50;;;;;;;25.00;9.45;;;;;;;-3.53;100.00;95703.44;5037305;28;20044;-84
2023/04/06 05:53:16;;;;;;;25.63;9.68;;;;;;;-3.47;100.00;95707.84;5036824;28;20037;-79
2023/04/06 05:55:42;;;;;;;21.60;9.98;;;;;;;-3.38;100.00;95704.22;5040722;28;20037;-79
2023/04/06 05:58:09;;;;;;;32.20;10.55;;;;;;;-3.41;100.00;95707.16;5035510;28;20095;-79
2023/04/06 06:00:35;;;;;;;24.42;9.38;;;;;;;-3.39;100.00;95700.06;5041181;28;20824;-78
2023/04/06 06:03:04;;;;;;;26.35;11.25;;;;;;;-3.21;100.00;95706.63;5036630;28;20046;-77
2023/04/06 06:05:29;;;;;;;25.65;10.52;;;;;;;-3.03;100.00;95708.81;5041496;28;20045;-78
2023/04/06 06:07:55;;;;;;;30.02;10.98;;;;;;;-2.93;100.00;95698.25;5031109;28;20566;-76
2023/04/06 06:10:20;;;;;;;24.65;10.43;;;;;;;-2.93;100.00;95708.56;5034990;28;20046;-77
2023/04/06 06:12:46;;;;;;;22.35;9.77;;;;;;;-2.89;100.00;95704.66;5035278;28;20458;-76
2023/04/06 06:15:12;;;;;;;26.35;9.93;;;;;;;-2.83;100.00;95703.91;5031170;28;20041;-77
2023/04/06 06:17:38;;;;;;;23.08;10.43;;;;;;;-2.76;100.00;95694.50;5048110;28;20041;-77
2023/04/06 06:20:06;;;;;;;33.50;10.43;;;;;;;-2.68;100.00;95702.13;5042545;28;20040;-78
2023/04/06 06:22:32;;;;;;;23.33;11.45;;;;;;;-2.61;100.00;95687.53;5036284;28;20103;-76
2023/04/06 06:24:57;;;;;;;23.75;10.38;;;;;;;-2.42;100.00;95689.72;5030829;28;20045;-80
2023/04/06 06:27:23;;;;;;;22.15;10.45;;;;;;;-2.33;100.00;95704.88;5034343;28;20428;-77
2023/04/06 06:29:48;;;;;;;21.13;9.95;;;;;;;-1.97;100.00;95693.69;5043495;28;20072;-77
2023/04/06 06:32:14;;;;;;;26.63;10.10;;;;;;;-1.73;100.00;95704.59;5039659;28;20124;-77
2023/04/06 06:34:40;;;;;;;23.50;10.27;;;;;;;-1.68;100.00;95707.41;5033264;28;20265;-77
2023/04/06 06:37:05;;;;;;;23.60;10.57;;;;;;;-1.44;100.00;95702.81;5039782;28;20398;-77
2023/04/06 06:39:31;;;;;;;27.02;10.70;;;;;;;-1.31;100.00;95704.69;5043283;28;20041;-77
2023/04/06 06:42:00;;;;;;;18.17;9.77;;;;;;;-1.25;100.00;95702.16;5037138;28;20114;-78
2023/04/06 06:44:26;;;;;;;24.88;9.77;;;;;;;-1.00;100.00;95704.25;5036798;28;20479;-79
2023/04/06 06:46:52;;;;;;;29.20;9.35;;;;;;;-0.69;100.00;95705.56;5036361;28;20041;-78
2023/04/06 06:49:18;;;;;;;26.83;9.43;;;;;;;-0.10;100.00;95704.16;5040918;28;20051;-78
2023/04/06 06:51:44;;;;;;;24.88;10.32;;;;;;;-0.49;100.00;95699.66;5043318;28;20041;-78
2023/04/06 06:54:09;;;;;;;22.33;10.02;;;;;;;-0.01;100.00;95702.16;5044285;28;20079;-78
2023/04/06 06:56:37;;;;;;;23.45;9.60;;;;;;;0.01;100.00;95705.34;5034523;28;20037;-78
2023/04/06 06:59:05;;;;;;;23.23;10.13;;;;;;;0.23;100.00;95710.31;5032204;28;20072;-78
2023/04/06 07:01:34;;;;;;;22.17;11.00;;;;;;;0.30;100.00;95713.72;5035914;28;20048;-78
2023/04/06 07:04:00;;;;;;;26.75;9.85;;;;;;;0.20;100.00;95713.31;5033765;28;20509;-78
2023/04/06 07:06:26;;;;;;;23.65;10.32;;;;;;;0.63;100.00;95718.06;5034871;28;20057;-78
2023/04/06 07:08:51;;;;;;;23.75;9.68;;;;;;;0.67;100.00;95716.69;5039401;28;20067;-77
2023/04/06 07:11:17;;;;;;;31.33;10.00;;;;;;;0.44;100.00;95715.28;5033536;28;20038;-77
2023/04/06 07:13:42;;;;;;;23.88;9.65;;;;;;;0.41;100.00;95707.94;5037979;28;20416;-77
2023/04/06 07:16:08;;;;;;;19.17;10.27;;;;;;;0.35;100.00;95706.16;5047576;28;20045;-77
2023/04/06 07:18:34;;;;;;;25.60;10.40;;;;;;;1.21;100.00;95705.19;5052015;28;20037;-77
2023/04/06 07:20:59;;;;;;;19.98;10.07;;;;;;;1.20;100.00;95713.94;5032958;28;20095;-77
2023/04/06 07:23:25;;;;;;;24.65;10.70;;;;;;;0.95;100.00;95707.84;5040641;28;20118;-77
2023/04/06 07:25:53;;;;;;;22.13;10.48;;;;;;;1.42;100.00;95721.44;5030410;28;20060;-76
2023/04/06 07:28:18;;;;;;;22.52;9.63;;;;;;;1.47;100.00;95708.66;5040398;28;20040;-76
2023/04/06 07:30:44;;;;;;;23.65;9.52;;;;;;;1.18;100.00;95710.78;5044027;28;20049;-76
2023/04/06 07:33:10;;;;;;;23.00;10.07;;;;;;;2.15;100.00;95709.88;5034959;28;20068;-76
2023/04/06 07:35:36;;;;;;;26.20;10.38;;;;;;;1.85;100.00;95710.47;5044810;28;20045;-76
2023/04/06 07:38:02;;;;;;;25.10;10.40;;;;;;;1.66;100.00;95719.16;5043744;28;20090;-76
2023/04/06 07:40:28;;;;;;;22.60;10.48;;;;;;;1.94;100.00;95715.41;5035988;28;20045;-76
2023/04/06 07:42:53;;;;;;;23.23;9.75;;;;;;;2.55;100.00;95714.75;5043734;28;20037;-75
2023/04/06 07:45:19;;;;;;;19.67;9.55;;;;;;;2.87;94.83;95717.25;5035249;28;20100;-76
2023/04/06 07:47:45;;;;;;;24.70;10.43;;;;;;;2.84;89.85;95717.69;5033092;28;20044;-76
2023/04/06 07:50:11;;;;;;;20.88;10.05;;;;;;;2.90;88.53;95711.66;5033294;28;20386;-76
2023/04/06 07:52:36;;;;;;;19.33;9.65;;;;;;;2.81;95.45;95712.91;5031454;28;20042;-76
2023/04/06 07:55:02;;;;;;;24.33;10.68;;;;;;;2.52;100.00;95704.78;5039491;28;20033;-76
2023/04/06 07:57:28;;;;;;;26.05;9.77;;;;;;;2.97;89.75;95706.34;5044282;28;20037;-76
2023/04/06 07:59:53;;;;;;;26.90;10.93;;;;;;;2.93;88.53;95705.19;5040095;28;20044;-76
2023/04/06 08:02:19;;;;;;;22.20;10.52;;;;;;;2.65;93.57;95703.88;5037429;28;20395;-76
2023/04/06 08:04:45;;;;;;;32.33;10.88;;;;;;;2.44;99.24;95702.44;5035337;28;20037;-76
2023/04/06 08:07:11;;;;;;;21.80;9.68;;;;;;;3.03;86.44;95705.50;5041329;28;20040;-76
2023/04/06 08:09:36;;;;;;;25.35;10.68;;;;;;;3.14;89.10;95700.59;5038766;28;20052;-76
2023/04/06 08:12:02;;;;;;;20.90;10.30;;;;;;;3.16;83.23;95698.56;5031194;28;20042;-76
2023/04/06 08:14:27;;;;;;;29.98;10.57;;;;;;;3.52;84.29;95702.94;5038989;28;20095;-76
2023/04/06 08:16:53;;;;;;;20.60;10.07;;;;;;;3.29;77.90;95701.81;5042741;28;20036;-76
2023/04/06 08:19:19;;;;;;;21.88;10.05;;;;;;;3.27;81.36;95706.44;5034937;28;20041;-76
2023/04/06 08:21:45;;;;;;;19.73;9.88;;;;;;;2.89;86.41;95715.25;5029785;28;20042;-76
2023/04/06 08:24:12;;;;;;;20.65;10.50;;;;;;;3.45;74.53;95699.63;5030526;28;20033;-77
2023/04/06 08:26:37;;;;;;;25.20;10.90;;;;;;;4.06;69.74;95707.44;5034253;28;20045;-76
2023/04/06 08:29:04;;;;;;;24.92;10.63;;;;;;;4.21;59.74;95709.59;5035246;28;20107;-76
2023/04/06 08:31:30;;;;;;;26.88;10.95;;;;;;;4.47;56.67;95703.22;5034033;28;20045;-75
2023/04/06 08:33:56;;;;;;;22.88;9.82;;;;;;;4.79;54.35;95705.47;5034957;28;20037;-76
2023/04/06 08:36:22;;;;;;;22.45;10.15;;;;;;;4.95;55.53;95699.56;5040592;28;20095;-76
2023/04/06 08:38:49;;;;;;;22.27;10.57;;;;;;;4.58;61.39;95705.00;5039282;28;20045;-78
2023/04/06 08:41:16;;;;;;;23.92;10.02;;;;;;;4.99;61.18;95705.91;5049747;28;20138;-77
2023/04/06 08:43:58;;;;;;;23.13;10.07;;;;;;;4.74;62.66;95700.13;5048887;28;20519;-78
2023/04/06 08:46:29;;;;;;;23.23;10.02;;;;;;;4.74;65.08;95702.75;5045399;28;20110;-77
2023/04/06 08:48:56;;;;;;;22.02;9.50;;;;;;;4.52;64.14;95695.50;5044333;28;20037;-77
2023/04/06 08:51:25;;;;;;;24.77;10.32;;;;;;;4.81;64.54;95693.00;5036442;28;20116;-77
2023/04/06 08:53:54;;;;;;;22.15;10.30;;;;;;;4.91;61.99;95688.00;5045982;28;20042;-79
2023/04/06 08:56:22;;;;;;;18.85;9.35;;;;;;;5.19;62.47;95694.31;5051363;28;20049;-78
2023/04/06 08:58:48;;;;;;;22.40;10.23;;;;;;;5.37;58.23;95696.78;5042708;28;20044;-78
2023/04/06 09:01:17;;;;;;;22.23;10.02;;;;;;;5.23;58.79;95690.22;5043346;28;20065;-78
2023/04/06 09:03:44;;;;;;;19.92;9.52;;;;;;;4.84;60.28;95687.31;5050311;28;20041;-80
2023/04/06 09:06:11;;;;;;;19.58;9.57;;;;;;;4.99;60.88;95694.69;5050467;28;20052;-79
2023/04/06 09:08:40;;;;;;;20.27;9.73;;;;;;;5.01;60.80;95683.00;5040036;28;20044;-78
2023/04/06 09:11:06;;;;;;;29.63;11.30;;;;;;;5.31;58.54;95682.03;5051054;28;20045;-79
2023/04/06 09:13:31;;;;;;;20.42;10.27;;;;;;;5.64;56.41;95683.16;5051786;28;20492;-79
2023/04/06 09:16:06;;;;;;;20.23;9.63;;;;;;;5.80;54.96;95693.88;5038048;28;20033;-81
2023/04/06 09:18:32;;;;;;;;;;;;;;;5.83;56.81;95688.19;5040713;28;20041;-79
2023/04/06 09:21:02;;;;;;;23.52;10.45;;;;;;;5.92;57.03;95676.34;5044628;28;19947;-79
2023/04/06 09:23:29;;;;;;;24.63;10.43;;;;;;;5.96;55.18;95684.50;5057100;28;20041;-79
2023/04/06 09:26:10;;;;;;;19.98;10.55;;;;;;;5.60;57.67;95689.88;5039546;28;20050;-78
2023/04/06 09:28:53;;;;;;;20.50;10.45;;;;;;;5.91;55.25;95677.38;5038118;28;20046;-79
2023/04/06 09:31:24;;;;;;;21.30;10.75;;;;;;;6.05;54.87;95691.75;5046879;28;20076;-79
2023/04/06 09:33:51;;;;;;;21.58;10.98;;;;;;;6.00;53.96;95683.03;5039551;28;20044;-79
2023/04/06 09:36:18;;;;;;;24.77;11.70;;;;;;;6.15;52.50;95685.09;5045796;28;20087;-79
2023/04/06 09:38:58;;;;;;;23.13;11.27;;;;;;;6.35;53.69;95692.47;5041506;28;20034;-78
2023/04/06 09:41:26;;;;;;;23.27;10.57;;;;;;;6.44;52.37;95682.41;5035647;28;20045;-79
2023/04/06 09:44:01;;;;;;;21.45;10.52;;;;;;;6.67;51.96;95682.25;5039051;28;20037;-79
2023/04/06 09:46:30;;;;;;;19.95;9.82;;;;;;;6.72;47.96;95684.94;5042364;28;21099;-78
2023/04/06 09:48:57;;;;;;;20.45;9.98;;;;;;;6.83;48.70;95685.09;5036146;28;20096;-78
2023/04/06 09:51:25;;;;;;;22.70;10.45;;;;;;;6.70;47.18;95673.91;5044621;28;20041;-79
2023/04/06 09:53:53;;;;;;;23.65;11.48;;;;;;;6.49;47.77;95669.44;5049117;28;20102;-79
2023/04/06 09:56:25;;;;;;;23.83;10.70;;;;;;;6.80;48.70;95669.88;5043701;28;20048;-79
2023/04/06 09:58:56;;;;;;;25.23;10.82;;;;;;;7.18;46.69;95673.50;5046381;28;20087;-79
2023/04/06 10:01:26;;;;;;;26.27;10.65;;;;;;;7.57;44.07;95662.94;5038864;28;20045;-79
2023/04/06 10:04:02;;;;;;;22.23;10.65;;;;;;;7.20;44.60;95668.81;5040739;28;20041;-80
2023/04/06 10:06:33;;;;;;;19.95;9.68;;;;;;;7.35;45.29;95655.88;5034085;28;20095;-78
2023/04/06 10:09:00;;;;;;;22.85;10.18;;;;;;;7.65;42.66;95662.50;5035500;28;20045;-78
2023/04/06 10:11:26;;;;;;;23.90;11.52;;;;;;;8.38;44.46;95662.09;5039955;28;20042;-80
2023/04/06 10:13:52;;;;;;;25.88;10.88;;;;;;;8.41;42.19;95653.72;5046593;28;20037;-80
2023/04/06 10:16:18;;;;;;;22.30;10.70;;;;;;;9.33;41.91;95650.03;5044526;28;20042;-79
2023/04/06 10:18:50;;;;;;;21.98;9.77;;;;;;;9.00;40.58;95652.00;5033182;28;20227;-78
2023/04/06 10:21:20;;;;;;;20.23;10.48;;;;;;;8.46;42.42;95655.59;5046068;28;20044;-76
2023/04/06 10:23:55;;;;;;;22.50;10.77;;;;;;;8.40;41.21;95654.75;5052021;28;20037;-77
2023/04/06 10:26:21;;;;;;;23.70;11.07;;;;;;;8.32;42.03;95647.38;5035690;28;20090;-77
2023/04/06 10:28:49;;;;;;;22.42;10.70;;;;;;;8.00;42.97;95648.13;5036017;28;20048;-78
2023/04/06 10:31:15;;;;;;;21.33;10.52;;;;;;;7.94;43.12;95641.28;5038049;28;20543;-77
2023/04/06 10:33:41;;;;;;;21.55;10.70;;;;;;;8.35;44.07;95654.72;5042926;28;20041;-77
2023/04/06 10:36:26;;;;;;;19.67;10.40;;;;;;;8.47;42.32;95644.84;5040588;28;20099;-79
2023/04/06 10:38:58;;;;;;;21.20;10.60;;;;;;;8.14;40.45;95646.69;5037760;28;20521;-81
2023/04/06 10:41:23;;;;;;;20.10;10.35;;;;;;;8.40;41.82;95644.25;5036922;28;20042;-78
2023/04/06 10:43:56;;;;;;;21.42;10.40;;;;;;;8.85;40.31;95639.59;5036843;28;20048;-80
2023/04/06 10:46:30;;;;;;;21.48;10.40;;;;;;;9.46;39.63;95639.03;5044378;28;20064;-78
2023/04/06 10:48:57;;;;;;;18.88;10.45;;;;;;;10.00;37.27;95634.41;5046717;28;20401;-78
2023/04/06 10:51:28;;;;;;;18.30;10.73;;;;;;;10.37;37.62;95641.25;5047106;28;20037;-81
2023/04/06 10:53:55;;;;;;;21.67;10.45;;;;;;;10.17;37.26;95634.94;5031879;28;20042;-78
2023/04/06 10:56:27;;;;;;;22.15;9.95;;;;;;;10.65;37.06;95636.50;5042355;28;20040;-78
2023/04/06 10:58:57;;;;;;;23.60;10.93;;;;;;;11.41;36.34;95619.66;5046425;28;20037;-79
2023/04/06 11:01:26;;;;;;;26.77;11.52;;;;;;;10.02;36.54;95621.78;5035828;28;20065;-77
2023/04/06 11:03:54;;;;;;;23.38;11.57;;;;;;;10.06;37.91;95620.22;5043952;28;20103;-79
2023/04/06 11:06:21;;;;;;;33.53;12.85;;;;;;;10.78;37.19;95625.41;5037981;28;20103;-79
2023/04/06 11:08:47;;;;;;;20.35;11.60;;;;;;;10.03;37.09;95626.00;5045196;28;20499;-78
2023/04/06 11:11:18;;;;;;;19.17;10.77;;;;;;;9.56;37.89;95621.75;5047012;28;20041;-78
2023/04/06 11:13:58;;;;;;;21.75;11.27;;;;;;;10.51;36.75;95628.38;5046738;28;20050;-77
2023/04/06 11:16:26;;;;;;;22.05;10.55;;;;;;;12.61;34.18;95615.09;5048789;28;20037;-77